Time;durP1;ratioP1;P1;durP2;ratioP2;P2;SDS_P1;SDS_P2;PMS_P1;PMS_P2;Temp;Humidity;BMP_temperature;BMP_pressure;BME280_temperature;BME280_humidity;BME280_pressure;Samples;Min_cycle;Max_cycle;Signal;HPM_P1;HPM_P2
2022/01/21 00:00:43;;;;;;;6.60;1.53;;;-1.20;99.90;;;;;;5165416;28;20192;-46
2022/01/21 00:03:13;;;;;;;7.50;1.30;;;-1.20;99.90;;;;;;5158381;28;20204;-47
2022/01/21 00:05:44;;;;;;;3.23;1.40;;;-1.20;99.90;;;;;;5182446;28;20181;-47
2022/01/21 00:08:15;;;;;;;2.70;1.17;;;-1.30;99.90;;;;;;5185501;28;20306;-48
2022/01/21 00:10:45;;;;;;;2.27;0.80;;;-1.30;99.90;;;;;;5179725;28;20731;-46
2022/01/21 00:13:25;;;;;;;3.20;0.70;;;-1.30;99.90;;;;;;5179178;28;20536;-46
2022/01/21 00:15:55;;;;;;;17.57;1.43;;;-1.30;99.90;;;;;;5158425;28;20266;-46
2022/01/21 00:18:26;;;;;;;1.07;0.50;;;-1.30;99.90;;;;;;5178818;28;20690;-48
2022/01/21 00:32:14;;;;;;;5.47;1.10;;;-1.30;99.90;;;;;;5181322;28;20427;-46
2022/01/21 00:34:45;;;;;;;4.70;0.97;;;-1.40;99.90;;;;;;5170038;28;20966;-46
2022/01/21 00:37:15;;;;;;;4.17;1.30;;;-1.40;99.90;;;;;;5188338;28;20711;-46
2022/01/21 00:39:52;;;;;;;1.47;0.70;;;-1.40;99.90;;;;;;5182416;28;20195;-47
2022/01/21 00:44:59;;;;;;;6.50;1.63;;;-1.40;99.90;;;;;;5187906;28;20443;-47
2022/01/21 00:47:30;;;;;;;7.30;1.80;;;-1.50;99.90;;;;;;5163886;28;20461;-46
2022/01/21 00:50:00;;;;;;;4.23;0.77;;;-1.40;99.90;;;;;;5185004;28;20436;-46
2022/01/21 00:52:31;;;;;;;2.87;1.20;;;-1.50;99.90;;;;;;5184331;28;20192;-47
2022/01/21 00:55:02;;;;;;;9.63;1.50;;;-1.50;99.90;;;;;;5168465;28;20215;-46
2022/01/21 00:57:33;;;;;;;1.80;0.87;;;-1.40;99.90;;;;;;5164452;28;20653;-47
2022/01/21 01:00:08;;;;;;;3.73;1.17;;;-1.40;99.90;;;;;;5183426;28;20517;-46
2022/01/21 01:02:42;;;;;;;3.43;1.03;;;-1.40;99.90;;;;;;5165177;28;20215;-46
2022/01/21 01:05:13;;;;;;;4.87;0.97;;;-1.50;99.90;;;;;;5167617;28;20446;-46
2022/01/21 01:07:44;;;;;;;1.73;0.80;;;-1.50;99.90;;;;;;5185168;28;20467;-47
2022/01/21 01:10:23;;;;;;;6.60;1.37;;;-1.50;99.90;;;;;;5178996;28;20779;-46
2022/01/21 01:19:52;;;;;;;3.17;1.00;;;-1.50;99.90;;;;;;5172854;28;20267;-46
2022/01/21 01:21:29;;;;;;;4.60;1.33;;;-1.50;99.90;;;;;;5180360;28;20500;-46
2022/01/21 01:29:22;;;;;;;6.37;1.70;;;-1.50;99.90;;;;;;5181781;28;20721;-46
2022/01/21 01:31:53;;;;;;;5.23;2.23;;;-1.50;99.90;;;;;;5163073;28;20783;-47
2022/01/21 01:34:23;;;;;;;2.40;1.20;;;-1.50;99.90;;;;;;5152592;28;20437;-46
2022/01/21 01:36:58;;;;;;;3.23;0.70;;;-1.50;99.90;;;;;;5162564;28;20656;-48
2022/01/21 01:50:44;;;;;;;9.03;1.50;;;-1.60;99.90;;;;;;5184561;28;20470;-46
2022/01/21 01:53:16;;;;;;;1.70;0.97;;;-1.60;99.90;;;;;;5164705;28;20436;-46
2022/01/21 01:55:47;;;;;;;7.53;1.63;;;-1.60;99.90;;;;;;5181371;28;20575;-46
2022/01/21 01:58:18;;;;;;;6.53;0.90;;;-1.60;99.90;;;;;;5185068;28;20463;-46
2022/01/21 02:00:48;;;;;;;7.40;0.93;;;-1.60;99.90;;;;;;5186894;28;20444;-46
2022/01/21 02:03:19;;;;;;;2.20;1.00;;;-1.60;99.90;;;;;;5162071;28;20305;-46
2022/01/21 02:05:49;;;;;;;7.03;1.17;;;-1.60;99.90;;;;;;5182165;28;20217;-45
2022/01/21 02:08:20;;;;;;;2.40;0.70;;;-1.50;99.90;;;;;;5179384;28;20204;-46
2022/01/21 02:10:50;;;;;;;1.80;0.87;;;-1.60;99.90;;;;;;5177210;28;20182;-45
2022/01/21 02:13:28;;;;;;;6.23;1.07;;;-1.70;99.90;;;;;;5185164;28;20189;-47
2022/01/21 02:21:47;;;;;;;1.00;1.00;;;-1.80;99.90;;;;;;5182981;28;20482;-47
2022/01/21 02:24:23;;;;;;;4.10;0.90;;;-1.80;99.90;;;;;;5176772;28;20439;-47
2022/01/21 02:26:53;;;;;;;3.27;0.90;;;-1.80;99.90;;;;;;5172192;28;20448;-46
2022/01/21 02:29:30;;;;;;;1.40;0.90;;;-1.80;99.90;;;;;;5158444;28;20771;-46
2022/01/21 02:32:01;;;;;;;2.03;0.87;;;-1.80;99.90;;;;;;5169050;28;20187;-46
2022/01/21 02:34:32;;;;;;;4.37;1.43;;;-1.80;99.90;;;;;;5184545;28;21029;-46
2022/01/21 02:37:02;;;;;;;5.40;0.97;;;-1.80;99.90;;;;;;5179031;28;20451;-48
2022/01/21 02:39:33;;;;;;;4.43;1.27;;;-1.90;99.90;;;;;;5167742;28;20477;-45
2022/01/21 02:42:04;;;;;;;5.67;2.00;;;-1.90;99.90;;;;;;5178590;28;20255;-46
2022/01/21 02:44:35;;;;;;;2.23;0.93;;;-1.90;99.90;;;;;;5179500;28;20180;-45
2022/01/21 02:47:08;;;;;;;6.43;1.20;;;-1.90;99.90;;;;;;5181835;28;20475;-46
2022/01/21 02:49:38;;;;;;;6.13;1.30;;;-2.00;99.90;;;;;;5181418;28;20812;-46
2022/01/21 02:52:09;;;;;;;11.33;1.27;;;-2.00;99.90;;;;;;5183904;28;20493;-46
2022/01/21 02:54:39;;;;;;;7.93;1.30;;;-2.00;99.90;;;;;;5165237;28;20188;-47
2022/01/21 02:57:10;;;;;;;3.80;1.63;;;-2.10;99.90;;;;;;5182800;28;20206;-47
2022/01/21 02:59:41;;;;;;;2.73;0.93;;;-2.10;99.90;;;;;;5179800;28;20256;-46
2022/01/21 03:02:13;;;;;;;6.13;1.40;;;-2.10;99.90;;;;;;5178648;28;20231;-45
2022/01/21 03:05:02;;;;;;;13.03;1.10;;;-2.10;99.90;;;;;;5179542;28;20628;-47
2022/01/21 03:07:33;;;;;;;4.43;1.40;;;-2.10;99.90;;;;;;5165265;28;21296;-46
2022/01/21 03:10:04;;;;;;;4.07;1.03;;;-2.20;99.90;;;;;;5178455;28;20435;-48
2022/01/21 03:12:35;;;;;;;3.03;1.10;;;-2.10;99.90;;;;;;5165658;28;20274;-46
2022/01/21 03:15:07;;;;;;;2.67;1.60;;;-2.10;99.90;;;;;;5182106;28;21002;-46
2022/01/21 03:17:37;;;;;;;5.60;1.00;;;-2.10;99.90;;;;;;5177004;28;20212;-47
2022/01/21 03:20:08;;;;;;;5.40;0.97;;;-2.10;99.90;;;;;;5185252;28;20435;-47
2022/01/21 03:22:40;;;;;;;1.37;0.97;;;-2.10;99.90;;;;;;5164376;28;20222;-46
2022/01/21 03:25:10;;;;;;;7.07;1.20;;;-2.10;99.90;;;;;;5162889;28;20738;-46
2022/01/21 03:27:41;;;;;;;3.87;1.93;;;-2.10;99.90;;;;;;5179358;28;20457;-46
2022/01/21 03:30:12;;;;;;;3.40;0.80;;;-2.10;99.90;;;;;;5164434;28;20173;-47
2022/01/21 03:32:43;;;;;;;2.40;0.80;;;-2.10;99.90;;;;;;5180075;28;20180;-46
2022/01/21 03:35:13;;;;;;;2.10;0.73;;;-2.10;99.90;;;;;;5182380;28;20507;-47
2022/01/21 03:37:44;;;;;;;1.40;0.83;;;-2.10;99.90;;;;;;5177274;28;20208;-46
2022/01/21 03:40:14;;;;;;;5.50;1.30;;;-2.20;99.90;;;;;;5163373;28;20268;-47
2022/01/21 03:42:46;;;;;;;1.70;1.00;;;-2.20;99.90;;;;;;5166792;28;20216;-46
2022/01/21 03:45:16;;;;;;;2.50;1.00;;;-2.20;99.90;;;;;;5178676;28;20454;-47
2022/01/21 03:47:47;;;;;;;2.17;1.00;;;-2.20;99.90;;;;;;5161801;28;20521;-46
2022/01/21 03:50:22;;;;;;;4.20;1.17;;;-2.20;99.90;;;;;;5172910;28;20262;-46
2022/01/21 03:52:52;;;;;;;5.70;0.97;;;-2.20;99.90;;;;;;5176638;28;20197;-46
2022/01/21 03:55:23;;;;;;;2.40;1.03;;;-2.20;99.90;;;;;;5162259;28;20462;-46
2022/01/21 03:57:53;;;;;;;4.87;0.80;;;-2.30;99.90;;;;;;5178568;28;20210;-47
2022/01/21 04:00:27;;;;;;;2.47;0.67;;;-2.30;99.90;;;;;;5174358;28;20273;-47
2022/01/21 04:02:58;;;;;;;1.30;0.90;;;-2.30;99.90;;;;;;5184520;28;20213;-47
2022/01/21 04:05:30;;;;;;;3.03;0.80;;;-2.40;99.90;;;;;;5179233;28;20953;-45
2022/01/21 04:08:05;;;;;;;1.30;1.20;;;-2.40;99.90;;;;;;5165175;28;20453;-48
2022/01/21 04:10:39;;;;;;;4.43;1.47;;;-2.40;99.90;;;;;;5177203;28;20905;-46
2022/01/21 04:13:18;;;;;;;4.80;1.07;;;-2.40;99.90;;;;;;5177604;28;20472;-46
2022/01/21 04:15:54;;;;;;;2.47;0.97;;;-2.40;99.90;;;;;;5173897;28;20440;-46
2022/01/21 04:18:24;;;;;;;1.57;1.00;;;-2.40;99.90;;;;;;5166383;23;20512;-49
2022/01/21 04:20:55;;;;;;;1.23;0.80;;;-2.40;99.90;;;;;;5138423;28;21037;-49
2022/01/21 04:23:25;;;;;;;5.97;0.80;;;-2.40;99.90;;;;;;5140882;28;20225;-51
2022/01/21 04:25:56;;;;;;;5.10;1.47;;;-2.50;99.90;;;;;;5142158;28;20771;-51
2022/01/21 04:28:26;;;;;;;4.20;1.17;;;-2.50;99.90;;;;;;5124346;28;20229;-50
2022/01/21 04:30:58;;;;;;;5.13;1.37;;;-2.50;99.90;;;;;;5140253;28;20234;-51
2022/01/21 04:33:28;;;;;;;4.37;0.80;;;-2.50;99.90;;;;;;5139966;28;20190;-51
2022/01/21 04:35:59;;;;;;;7.70;1.10;;;-2.50;99.90;;;;;;5135558;28;20430;-50
2022/01/21 04:38:30;;;;;;;5.97;1.40;;;-2.60;99.90;;;;;;5142692;28;20234;-51
2022/01/21 04:47:17;;;;;;;3.40;1.30;;;-2.60;99.90;;;;;;5141260;28;20472;-50
2022/01/21 04:49:44;;;;;;;7.13;1.80;;;-2.60;99.90;;;;;;5139640;28;20941;-49
2022/01/21 04:52:16;;;;;;;6.77;1.33;;;-2.60;99.90;;;;;;5138037;28;20446;-53
2022/01/21 04:54:47;;;;;;;5.70;1.50;;;-2.60;99.90;;;;;;5139761;28;20444;-52
2022/01/21 04:57:18;;;;;;;3.50;1.10;;;-2.70;99.90;;;;;;5138997;28;20450;-49
2022/01/21 04:59:49;;;;;;;3.50;1.20;;;-2.70;99.90;;;;;;5136714;28;20444;-51
2022/01/21 05:02:19;;;;;;;7.43;1.30;;;-2.70;99.90;;;;;;5133679;28;20469;-51
2022/01/21 05:04:50;;;;;;;3.23;0.90;;;-2.70;99.90;;;;;;5134868;28;20278;-50
2022/01/21 05:07:24;;;;;;;1.60;1.00;;;-2.70;99.90;;;;;;5139613;28;20189;-50
2022/01/21 05:09:54;;;;;;;12.03;1.20;;;-2.70;99.90;;;;;;5137305;28;20235;-53
2022/01/21 05:12:27;;;;;;;5.30;1.20;;;-2.70;99.90;;;;;;5138343;28;20445;-52
2022/01/21 05:17:29;;;;;;;2.30;1.00;;;-2.80;99.90;;;;;;5149872;28;20456;-50
2022/01/21 05:20:00;;;;;;;8.70;1.17;;;-2.80;99.90;;;;;;5159274;28;20711;-49
2022/01/21 05:22:30;;;;;;;4.90;1.00;;;-2.90;99.90;;;;;;5163792;28;20466;-51
2022/01/21 05:25:01;;;;;;;1.97;1.00;;;-2.90;99.90;;;;;;5147473;28;20647;-52
2022/01/21 05:27:31;;;;;;;1.07;0.97;;;-2.80;99.90;;;;;;5162576;28;20235;-51
2022/01/21 05:30:03;;;;;;;5.37;1.10;;;-2.90;99.90;;;;;;5159621;28;20186;-51
2022/01/21 05:32:33;;;;;;;4.03;1.23;;;-2.90;99.90;;;;;;5158792;28;20198;-51
2022/01/21 05:35:05;;;;;;;3.20;1.17;;;-2.90;99.90;;;;;;5146087;28;20432;-51
2022/01/21 05:37:36;;;;;;;2.00;0.87;;;-2.90;99.90;;;;;;5165120;28;20255;-52
2022/01/21 05:40:12;;;;;;;6.13;1.97;;;-2.90;99.90;;;;;;5135837;28;20961;-51
2022/01/21 05:42:43;;;;;;;2.83;1.20;;;-2.90;99.90;;;;;;5139294;28;20987;-51
2022/01/21 05:48:03;;;;;;;4.40;1.33;;;-2.90;99.90;;;;;;5165707;28;20259;-50
2022/01/21 05:50:34;;;;;;;6.63;1.40;;;-3.00;99.90;;;;;;5143587;28;20439;-51
2022/01/21 05:53:08;;;;;;;4.63;1.37;;;-2.90;99.90;;;;;;5161002;28;20436;-50
2022/01/21 05:55:42;;;;;;;3.20;1.40;;;-2.90;99.90;;;;;;5160989;28;20189;-50
2022/01/21 05:58:13;;;;;;;7.00;1.53;;;-2.90;99.90;;;;;;5162366;28;20454;-50
2022/01/21 06:00:47;;;;;;;6.47;1.40;;;-2.90;99.90;;;;;;5144127;28;20532;-51
2022/01/21 06:03:17;;;;;;;3.93;1.57;;;-2.90;99.90;;;;;;5147116;28;20469;-50
2022/01/21 06:05:48;;;;;;;3.97;1.53;;;-2.90;99.90;;;;;;5160731;28;20828;-51
2022/01/21 06:08:19;;;;;;;5.30;1.87;;;-2.90;99.90;;;;;;5144180;28;20206;-50
2022/01/21 06:10:49;;;;;;;6.53;1.67;;;-2.90;99.90;;;;;;5149455;28;20169;-52
2022/01/21 06:13:20;;;;;;;3.30;1.00;;;-2.90;99.90;;;;;;5126227;28;20442;-49
2022/01/21 06:15:50;;;;;;;3.23;1.60;;;-2.90;99.90;;;;;;5142137;28;20220;-51
2022/01/21 06:18:21;;;;;;;3.27;1.57;;;-2.90;99.90;;;;;;5149272;28;20216;-50
2022/01/21 06:20:52;;;;;;;6.83;1.67;;;-3.00;99.90;;;;;;5140205;28;20196;-51
2022/01/21 06:23:23;;;;;;;7.13;1.30;;;-3.00;99.90;;;;;;5141645;28;20203;-52
2022/01/21 06:25:53;;;;;;;9.77;1.43;;;-2.90;99.90;;;;;;5135793;28;20580;-50
2022/01/21 06:28:24;;;;;;;1.33;1.33;;;-3.00;99.90;;;;;;5140067;28;20208;-51
2022/01/21 06:30:55;;;;;;;2.67;1.17;;;-3.00;99.90;;;;;;5126929;28;20246;-52
2022/01/21 06:33:25;;;;;;;6.87;1.80;;;-2.90;99.90;;;;;;5152978;28;20442;-50
2022/01/21 06:35:56;;;;;;;5.93;1.30;;;-2.90;99.90;;;;;;5135874;28;20193;-52
2022/01/21 06:38:27;;;;;;;10.73;1.87;;;-2.90;99.90;;;;;;5138490;28;20848;-52
2022/01/21 06:40:58;;;;;;;7.07;1.77;;;-2.90;99.90;;;;;;5136392;28;20635;-51
2022/01/21 06:43:29;;;;;;;1.60;1.50;;;-2.90;99.90;;;;;;5138958;28;20461;-53
2022/01/21 06:45:59;;;;;;;2.77;1.57;;;-2.80;99.90;;;;;;5133368;28;20217;-52
2022/01/21 06:48:30;;;;;;;3.90;2.27;;;-2.80;99.90;;;;;;5135788;28;20295;-52
2022/01/21 06:51:00;;;;;;;7.10;2.10;;;-2.90;99.90;;;;;;5133419;28;20181;-52
2022/01/21 06:53:31;;;;;;;5.80;2.30;;;-2.80;99.90;;;;;;5139065;28;20273;-50
2022/01/21 06:56:01;;;;;;;6.10;1.93;;;-2.80;99.90;;;;;;5140321;28;20187;-50
2022/01/21 06:58:32;;;;;;;4.90;1.33;;;-2.80;99.90;;;;;;5139961;28;20298;-52
2022/01/21 07:01:03;;;;;;;6.73;1.67;;;-2.80;99.90;;;;;;5136574;28;20186;-52
2022/01/21 07:03:33;;;;;;;5.63;1.57;;;-2.80;99.90;;;;;;5141557;28;20310;-52
2022/01/21 07:06:04;;;;;;;4.90;1.90;;;-2.80;99.90;;;;;;5135458;28;20174;-52
2022/01/21 07:08:35;;;;;;;4.23;2.67;;;-2.80;99.90;;;;;;5137248;28;20821;-53
2022/01/21 07:11:05;;;;;;;4.83;1.97;;;-2.80;99.90;;;;;;5129252;28;20629;-52
2022/01/21 07:13:36;;;;;;;7.60;1.83;;;-2.70;99.90;;;;;;5136687;28;20197;-54
2022/01/21 07:16:07;;;;;;;2.17;1.80;;;-2.60;99.90;;;;;;5155754;28;20234;-50
2022/01/21 07:18:37;;;;;;;3.63;1.40;;;-2.60;99.90;;;;;;5135934;28;20224;-52
2022/01/21 07:21:08;;;;;;;10.23;1.20;;;-2.60;99.90;;;;;;5135343;28;20699;-52
2022/01/21 07:23:38;;;;;;;6.60;1.97;;;-2.50;99.90;;;;;;5134797;28;20209;-51
2022/01/21 07:26:10;;;;;;;16.37;2.20;;;-2.50;99.90;;;;;;5152866;28;20437;-51
2022/01/21 07:28:41;;;;;;;11.87;1.97;;;-2.60;99.90;;;;;;5137230;28;20263;-52
2022/01/21 07:31:12;;;;;;;5.13;1.23;;;-2.50;99.90;;;;;;5140792;28;20766;-53
2022/01/21 07:33:42;;;;;;;8.13;2.03;;;-2.50;99.90;;;;;;5135509;28;20273;-53
2022/01/21 07:36:13;;;;;;;5.53;1.87;;;-2.50;99.90;;;;;;5134501;28;20216;-51
2022/01/21 07:38:43;;;;;;;5.53;1.83;;;-2.50;99.90;;;;;;5141914;28;20210;-51
2022/01/21 07:41:14;;;;;;;4.67;1.43;;;-2.40;99.90;;;;;;5151673;28;20642;-51
2022/01/21 07:43:45;;;;;;;10.20;2.37;;;-2.40;99.90;;;;;;5136653;28;20293;-51
2022/01/21 07:46:16;;;;;;;11.13;1.80;;;-2.40;99.90;;;;;;5130793;28;20465;-51
2022/01/21 07:48:47;;;;;;;6.10;2.07;;;-2.40;99.90;;;;;;5138670;28;20197;-52
2022/01/21 07:51:17;;;;;;;15.10;1.60;;;-2.30;99.90;;;;;;5139078;28;20935;-53
2022/01/21 07:53:48;;;;;;;3.03;1.47;;;-2.30;99.90;;;;;;5139329;28;20650;-51
2022/01/21 07:56:19;;;;;;;5.90;1.77;;;-2.30;99.90;;;;;;5142452;28;20192;-51
2022/01/21 07:58:51;;;;;;;8.70;1.60;;;-2.30;99.90;;;;;;5137696;28;20213;-51
2022/01/21 08:01:22;;;;;;;4.93;3.40;;;-2.20;99.90;;;;;;5140160;28;20964;-52
2022/01/21 08:03:52;;;;;;;5.87;2.00;;;-2.20;99.90;;;;;;5124981;28;20570;-51
2022/01/21 08:06:23;;;;;;;11.10;2.57;;;-2.20;99.90;;;;;;5138966;28;20256;-51
2022/01/21 08:08:54;;;;;;;6.03;2.57;;;-2.20;99.90;;;;;;5132987;28;20205;-53
2022/01/21 08:11:25;;;;;;;7.83;1.53;;;-2.10;99.90;;;;;;5136899;28;20208;-51
2022/01/21 08:13:56;;;;;;;6.10;1.63;;;-2.10;99.90;;;;;;5141875;28;20693;-52
2022/01/21 08:16:27;;;;;;;3.77;1.80;;;-2.00;99.90;;;;;;5133663;28;20523;-50
2022/01/21 08:18:58;;;;;;;2.90;1.50;;;-2.00;99.90;;;;;;5137504;28;20217;-53
2022/01/21 08:21:29;;;;;;;6.17;2.50;;;-2.00;99.90;;;;;;5137630;28;20187;-51
2022/01/21 08:23:59;;;;;;;7.27;2.17;;;-1.90;99.90;;;;;;5143767;28;20466;-50
2022/01/21 08:26:30;;;;;;;13.20;2.87;;;-1.90;99.90;;;;;;5134873;28;20186;-52
2022/01/21 08:29:02;;;;;;;3.87;1.73;;;-1.90;99.90;;;;;;5139207;28;20582;-53
2022/01/21 08:31:34;;;;;;;6.83;1.70;;;-1.80;99.90;;;;;;5137377;28;20281;-52
2022/01/21 08:34:04;;;;;;;13.67;1.90;;;-1.80;99.90;;;;;;5139470;28;20533;-52
2022/01/21 08:36:35;;;;;;;5.40;1.40;;;-1.70;99.90;;;;;;5137513;28;20532;-51
2022/01/21 08:39:06;;;;;;;12.00;2.53;;;-1.70;99.90;;;;;;5135876;28;20212;-51
2022/01/21 08:41:37;;;;;;;13.47;2.07;;;-1.80;99.90;;;;;;5143008;28;20192;-52
2022/01/21 08:44:07;;;;;;;8.33;2.10;;;-1.70;99.90;;;;;;5143688;28;20560;-52
2022/01/21 08:46:38;;;;;;;5.00;1.27;;;-1.60;99.90;;;;;;5140268;28;20188;-50
2022/01/21 08:49:09;;;;;;;3.57;2.00;;;-1.60;99.90;;;;;;5142357;28;20203;-52
2022/01/21 08:51:49;;;;;;;4.70;2.00;;;-1.50;99.90;;;;;;5144800;28;20207;-52
2022/01/21 08:54:21;;;;;;;10.70;2.30;;;-1.50;99.90;;;;;;5145013;28;20666;-54
2022/01/21 08:56:53;;;;;;;7.17;2.00;;;-1.50;99.90;;;;;;5143844;28;20444;-53
2022/01/21 08:59:26;;;;;;;9.13;2.17;;;-1.40;99.90;;;;;;5143112;28;20558;-50
2022/01/21 09:01:57;;;;;;;5.23;1.63;;;-1.40;99.90;;;;;;5145701;28;20436;-50
2022/01/21 09:04:27;;;;;;;4.60;1.70;;;-1.40;99.90;;;;;;5143079;28;20944;-51
2022/01/21 09:06:58;;;;;;;9.53;2.37;;;-1.30;99.90;;;;;;5146003;28;20624;-52
2022/01/21 09:09:29;;;;;;;4.60;1.80;;;-1.30;99.90;;;;;;5141682;28;20226;-52
2022/01/21 09:12:00;;;;;;;26.07;2.70;;;-1.20;99.90;;;;;;5139381;28;20469;-52
2022/01/21 09:14:31;;;;;;;8.20;1.83;;;-1.20;99.90;;;;;;5140829;28;20235;-51
2022/01/21 09:17:02;;;;;;;12.53;2.53;;;-1.10;99.90;;;;;;5145249;28;20233;-51
2022/01/21 09:19:33;;;;;;;8.60;1.97;;;-1.10;99.90;;;;;;5146986;28;20581;-53
2022/01/21 09:22:03;;;;;;;2.47;1.73;;;-1.00;99.90;;;;;;5167110;28;20440;-52
2022/01/21 09:24:34;;;;;;;8.60;2.40;;;-1.00;99.90;;;;;;5152088;28;20181;-53
2022/01/21 09:27:05;;;;;;;3.57;1.90;;;-0.90;99.90;;;;;;5156567;28;20224;-51
2022/01/21 09:29:36;;;;;;;10.53;2.43;;;-0.80;99.90;;;;;;5145446;28;20630;-51
2022/01/21 09:32:07;;;;;;;7.80;2.60;;;-0.80;99.90;;;;;;5151476;28;20475;-51
2022/01/21 09:34:38;;;;;;;4.93;1.50;;;-0.80;99.90;;;;;;5151706;28;20193;-52
2022/01/21 09:37:08;;;;;;;8.00;2.30;;;-0.70;99.90;;;;;;5144372;28;20992;-52
2022/01/21 09:39:39;;;;;;;4.53;2.03;;;-0.70;99.90;;;;;;5159487;28;20186;-52
2022/01/21 09:42:13;;;;;;;14.00;2.57;;;-0.60;99.90;;;;;;5158733;28;20249;-52
2022/01/21 09:44:45;;;;;;;7.80;2.27;;;-0.50;99.90;;;;;;5165815;28;20175;-52
2022/01/21 09:47:19;;;;;;;5.03;2.00;;;-0.50;99.90;;;;;;5160311;28;20428;-52
2022/01/21 09:49:49;;;;;;;7.93;2.20;;;-0.30;99.90;;;;;;5147315;28;20928;-50
2022/01/21 09:52:22;;;;;;;7.50;2.50;;;-0.30;99.90;;;;;;5141955;28;20455;-52
2022/01/21 09:54:53;;;;;;;6.37;1.93;;;-0.10;99.90;;;;;;5166828;28;20184;-51
2022/01/21 09:57:23;;;;;;;22.43;3.07;;;0.00;99.90;;;;;;5145314;28;20425;-51
2022/01/21 09:59:55;;;;;;;6.40;1.87;;;0.00;99.90;;;;;;5161827;28;20441;-52
2022/01/21 10:02:28;;;;;;;16.23;2.40;;;0.00;99.90;;;;;;5156523;28;20815;-52
2022/01/21 10:05:00;;;;;;;6.70;1.90;;;0.10;99.90;;;;;;5142899;28;20439;-52
2022/01/21 10:07:31;;;;;;;5.50;2.60;;;0.10;99.90;;;;;;5156377;28;20547;-49
2022/01/21 10:10:07;;;;;;;8.30;1.90;;;0.20;99.90;;;;;;5136797;28;20908;-52
2022/01/21 10:12:39;;;;;;;11.13;1.87;;;0.30;99.90;;;;;;5160346;28;20971;-50
2022/01/21 10:15:11;;;;;;;13.50;2.20;;;0.40;99.90;;;;;;5161169;28;20440;-51
2022/01/21 10:18:02;;;;;;;4.57;2.60;;;0.50;99.90;;;;;;5156876;28;20464;-52
2022/01/21 10:20:33;;;;;;;10.07;2.60;;;0.60;99.90;;;;;;5124422;28;20441;-52
2022/01/21 10:23:09;;;;;;;3.77;2.00;;;0.60;99.90;;;;;;5124164;28;20499;-51
2022/01/21 10:25:40;;;;;;;17.40;3.03;;;0.60;99.90;;;;;;5135547;28;20277;-50
2022/01/21 10:28:17;;;;;;;3.80;1.80;;;0.60;99.90;;;;;;5136173;28;20564;-53
2022/01/21 10:30:51;;;;;;;4.60;1.80;;;0.60;99.90;;;;;;5141068;28;20853;-52
2022/01/21 10:33:26;;;;;;;12.13;1.97;;;0.70;99.90;;;;;;5122379;28;20452;-53
2022/01/21 10:36:15;;;;;;;7.17;2.60;;;0.70;99.90;;;;;;5138594;28;20961;-52
2022/01/21 10:38:47;;;;;;;6.50;2.00;;;0.90;99.90;;;;;;5120548;28;20474;-53
2022/01/21 10:41:21;;;;;;;10.03;2.03;;;0.90;99.90;;;;;;5134862;28;20581;-55
2022/01/21 10:44:21;;;;;;;3.47;1.77;;;0.90;99.90;;;;;;5138665;28;20456;-56
2022/01/21 10:47:05;;;;;;;7.60;1.80;;;0.90;99.90;;;;;;5117231;28;20433;-50
2022/01/21 10:49:42;;;;;;;11.03;2.10;;;0.90;99.90;;;;;;5136316;28;20462;-52
2022/01/21 10:52:15;;;;;;;8.97;2.20;;;0.90;99.90;;;;;;5139196;28;20438;-51
2022/01/21 10:54:51;;;;;;;3.70;2.60;;;1.00;99.90;;;;;;5142333;28;20433;-52
2022/01/21 10:57:22;;;;;;;11.10;2.63;;;1.20;99.90;;;;;;5139041;28;20844;-50
2022/01/21 10:59:58;;;;;;;9.77;3.50;;;1.20;99.90;;;;;;5116571;28;20437;-52
2022/01/21 11:02:46;;;;;;;10.17;3.87;;;1.40;99.90;;;;;;5133371;28;20833;-52
2022/01/21 11:05:20;;;;;;;4.50;2.07;;;1.40;99.90;;;;;;5138370;28;20444;-51
2022/01/21 11:08:06;;;;;;;8.07;2.23;;;1.40;99.90;;;;;;5137745;28;20458;-53
2022/01/21 11:10:39;;;;;;;5.13;2.33;;;1.40;99.90;;;;;;5142653;28;20425;-52
2022/01/21 11:13:12;;;;;;;15.53;2.43;;;1.50;99.90;;;;;;5143237;28;20433;-51
2022/01/21 11:15:49;;;;;;;4.63;1.53;;;1.40;99.90;;;;;;5123416;28;20527;-54
2022/01/21 11:18:21;;;;;;;5.83;2.07;;;1.50;99.90;;;;;;5142701;28;20981;-50
2022/01/21 11:20:57;;;;;;;6.93;1.93;;;1.40;99.90;;;;;;5140540;28;21067;-51
2022/01/21 11:23:28;;;;;;;6.63;1.80;;;1.50;99.90;;;;;;5136505;28;20546;-52
2022/01/21 11:26:09;;;;;;;8.90;3.50;;;1.50;99.90;;;;;;5137732;28;20437;-54
2022/01/21 11:28:41;;;;;;;10.93;3.47;;;1.60;99.90;;;;;;5123164;28;20683;-51
2022/01/21 11:31:14;;;;;;;10.50;2.43;;;1.60;99.90;;;;;;5140329;28;20944;-52
2022/01/21 11:33:45;;;;;;;6.23;2.77;;;1.60;99.90;;;;;;5136155;28;21053;-53
2022/01/21 11:36:17;;;;;;;13.20;2.50;;;1.60;99.90;;;;;;5137888;28;20472;-52
2022/01/21 11:38:51;;;;;;;10.13;2.70;;;1.60;99.90;;;;;;5138346;28;20952;-50
2022/01/21 11:41:28;;;;;;;4.77;1.97;;;1.60;99.90;;;;;;5138945;28;20436;-51
2022/01/21 11:44:02;;;;;;;4.30;1.60;;;1.70;99.90;;;;;;5135580;28;20544;-55
2022/01/21 11:49:17;;;;;;;9.23;2.90;;;1.80;99.90;;;;;;5140720;28;20479;-51
2022/01/21 11:51:48;;;;;;;7.33;2.80;;;1.80;99.90;;;;;;5138555;28;20431;-52
2022/01/21 11:54:24;;;;;;;2.77;1.50;;;1.90;99.90;;;;;;5135175;28;20521;-51
2022/01/21 11:56:57;;;;;;;3.20;2.07;;;1.80;99.90;;;;;;5136292;28;20192;-52
2022/01/21 11:59:34;;;;;;;12.40;3.50;;;2.00;99.90;;;;;;5140889;28;20555;-52
2022/01/21 12:02:16;;;;;;;17.03;6.53;;;1.90;99.90;;;;;;5138133;28;20965;-51
2022/01/21 12:04:53;;;;;;;19.23;6.63;;;2.00;99.90;;;;;;5139862;28;20439;-52
2022/01/21 12:10:18;;;;;;;7.03;3.20;;;2.00;99.90;;;;;;5136794;28;20437;-52
2022/01/21 12:12:55;;;;;;;4.70;1.50;;;2.10;99.90;;;;;;5139284;28;20476;-52
2022/01/21 12:15:41;;;;;;;5.63;3.63;;;2.10;99.90;;;;;;5134548;28;20448;-52
2022/01/21 12:20:55;;;;;;;20.87;5.47;;;2.20;98.80;;;;;;5134807;28;20438;-52
2022/01/21 12:23:27;;;;;;;10.87;2.27;;;2.20;97.00;;;;;;5133858;28;21000;-54
2022/01/21 12:26:20;;;;;;;10.50;4.27;;;2.20;97.80;;;;;;5142760;28;20495;-50
2022/01/21 12:28:57;;;;;;;13.33;2.80;;;2.10;98.10;;;;;;5140318;28;20789;-49
2022/01/21 12:31:46;;;;;;;10.93;4.63;;;2.20;97.40;;;;;;5137745;28;20527;-50
2022/01/21 12:34:17;;;;;;;7.10;2.60;;;2.30;99.20;;;;;;5140312;28;20437;-51
2022/01/21 12:36:51;;;;;;;4.50;2.73;;;2.30;96.80;;;;;;5137225;28;20440;-52
2022/01/21 12:39:48;;;;;;;3.47;2.00;;;2.30;92.30;;;;;;5139476;28;20215;-52
2022/01/21 12:42:21;;;;;;;7.03;3.40;;;2.30;87.10;;;;;;5143199;28;20523;-51
2022/01/21 12:45:15;;;;;;;19.13;6.23;;;2.30;82.80;;;;;;5141743;28;20460;-54
2022/01/21 12:47:48;;;;;;;10.37;2.00;;;2.30;85.80;;;;;;5136414;28;20496;-53
2022/01/21 12:50:29;;;;;;;6.10;1.73;;;2.30;88.00;;;;;;5140491;28;20467;-50
2022/01/21 12:55:55;;;;;;;6.47;1.93;;;2.30;89.10;;;;;;5141324;28;20436;-53
2022/01/21 12:58:30;;;;;;;1.13;0.60;;;2.30;91.60;;;;;;5135891;28;20457;-52
2022/01/21 13:01:07;;;;;;;3.20;1.57;;;2.20;89.10;;;;;;5138073;28;21065;-53
2022/01/21 13:03:52;;;;;;;8.20;1.33;;;2.20;90.00;;;;;;5155642;28;20563;-53
2022/01/21 13:06:37;;;;;;;9.67;4.77;;;2.30;94.20;;;;;;5134438;28;20429;-52
2022/01/21 13:09:12;;;;;;;9.53;3.30;;;2.20;92.50;;;;;;5140258;28;20485;-52
2022/01/21 13:11:56;;;;;;;3.63;2.03;;;2.20;93.40;;;;;;5132025;28;20432;-51
2022/01/21 13:17:04;;;;;;;7.60;2.20;;;2.10;95.00;;;;;;5136263;28;20449;-51
2022/01/21 13:19:43;;;;;;;2.00;1.30;;;2.10;95.10;;;;;;5134824;28;20495;-51
2022/01/21 13:22:19;;;;;;;3.30;1.63;;;2.00;95.40;;;;;;5138092;28;20436;-51
2022/01/21 13:25:02;;;;;;;3.30;1.50;;;2.00;94.90;;;;;;5137712;28;20460;-51
2022/01/21 13:27:34;;;;;;;8.80;1.30;;;2.00;94.50;;;;;;5141052;28;20770;-52
2022/01/21 13:30:11;;;;;;;1.90;1.17;;;2.00;95.50;;;;;;5137960;28;20436;-52
2022/01/21 13:32:43;;;;;;;1.57;1.47;;;2.00;96.00;;;;;;5134750;28;20503;-53
2022/01/21 13:35:21;;;;;;;2.07;1.17;;;2.00;96.70;;;;;;5139720;28;20440;-52
2022/01/21 13:38:02;;;;;;;3.03;2.00;;;2.00;96.20;;;;;;5137158;28;20913;-51
2022/01/21 13:40:37;;;;;;;5.40;1.57;;;1.90;96.00;;;;;;5138367;28;20447;-52
2022/01/21 13:43:11;;;;;;;7.50;1.87;;;2.00;97.20;;;;;;5138972;28;20555;-53
2022/01/21 13:45:53;;;;;;;5.13;2.23;;;1.90;98.00;;;;;;5155854;28;20437;-51
2022/01/21 13:48:23;;;;;;;10.03;3.77;;;1.90;97.70;;;;;;5140399;28;20452;-53
2022/01/21 13:50:55;;;;;;;27.93;10.20;;;2.00;98.00;;;;;;5142810;28;20445;-51
2022/01/21 13:53:26;;;;;;;6.90;3.50;;;1.90;99.30;;;;;;5140466;28;20189;-52
2022/01/21 13:56:00;;;;;;;6.90;2.20;;;1.90;99.70;;;;;;5133725;28;20965;-53
2022/01/21 13:58:34;;;;;;;5.50;1.60;;;1.90;99.90;;;;;;5142763;28;20216;-52
2022/01/21 14:01:14;;;;;;;7.33;2.00;;;2.00;99.90;;;;;;5139316;28;20437;-51
2022/01/21 14:03:45;;;;;;;10.00;3.20;;;1.90;99.90;;;;;;5143314;28;20453;-50
2022/01/21 14:06:19;;;;;;;3.87;2.33;;;1.90;99.90;;;;;;5141886;28;20448;-52
2022/01/21 14:08:56;;;;;;;2.30;1.43;;;1.90;99.90;;;;;;5140865;28;20197;-53
2022/01/21 14:11:42;;;;;;;2.40;1.27;;;1.90;99.50;;;;;;5140255;28;20441;-55
2022/01/21 14:14:15;;;;;;;2.40;1.50;;;1.80;99.50;;;;;;5118571;28;20460;-51
2022/01/21 14:16:47;;;;;;;0.83;0.70;;;1.80;99.80;;;;;;5139093;28;20515;-52
2022/01/21 14:19:20;;;;;;;10.40;1.60;;;1.80;99.50;;;;;;5142829;28;20953;-52
2022/01/21 14:22:01;;;;;;;9.63;1.47;;;1.80;98.00;;;;;;5118527;28;20707;-52
2022/01/21 14:24:42;;;;;;;5.60;1.53;;;1.80;97.60;;;;;;5137775;28;20556;-52